METAR AND TAF INFORMATION
METAR FOR SEGS
ADDS - METARS form results

(2035 UTC 29 September 2020)
Data provider http://aviationweather.gov/metar/data/
 
METAR text: SEGS 292000Z 27013KT 9999 BKN020 24/18 Q1011 A2986
Conditions at: SEGS (SAN CRISTOBAL , EC) observed 2000 UTC 29 September 2020
Temperature: 24.0°C (75°F)
Dewpoint: 18.0°C (64°F) [RH = 69%]
Pressure (altimeter): 29.85 inches Hg (1011.0 mb)
Winds: from the W (270 degrees) at 15 MPH (13 knots; 6.7 m/s)
Visibility: 6 or more miles (10+ km)
Ceiling: 2000 feet AGL
Clouds: broken clouds at 2000 feet AGL
Weather: no significant weather observed at this time

 AIRPORT MAP

 RUNWAY INFORMATION
Runway 14 Runway length 7876 ft Runway width 115 ft
Runway elevation 145 ft Runway displaced threshold 0 ft Runway heading 144
Runway 32 Runway length 7876 ft Runway width 115 ft
Runway elevation 207 ft Runway displaced threshold 0 ft Runway heading 324

 AIRPORT FREQUENCIES
Type TWR Name TWR Frequency 122.2 MHZ

 AIRPORT NEAR NAVIGATION AIDS
Type NDB Name Galapagos Frequency 272 KHZ
Type VOR-DME Name Galapagos Frequency 112300 KHZ